Tenente Portela, Brazil
Current Conditions -  °F | °C
As of 9:00 AM on Friday 28 Nov 2014 (Local Time) from SBCH Reporting Station
Few Clouds Few Clouds  
Wind Chill: 73°   Ceiling: Unl
Heat Index: 73°   Visibility: 6mi
Dew Point: 63°   Wind: 14mph
Humidity: 69%   Direction: 110°ESE
Pressure: 30"   Gusts: NA
Location:  27.37°S, 53.76°W
Report Text: SBCH 281100Z 11012KT 9999 FEW035 23/17 Q1016
Loading
Personal Weather Stations






























Interactive Weather Map New forecast layout! Learn more

10-Day Weather Forecast

Advertisements
Track Severe Weather on mobile